sensor_id;sensor_type;location;lat;lon;timestamp;temperature;humidity
23991;DHT22;12205;50.600;4.608;2022-08-24T00:00:19;20.20;99.90
23991;DHT22;12205;50.600;4.608;2022-08-24T00:02:48;20.20;99.90
23991;DHT22;12205;50.600;4.608;2022-08-24T00:05:16;20.10;99.90
23991;DHT22;12205;50.600;4.608;2022-08-24T00:07:46;20.10;99.90
23991;DHT22;12205;50.600;4.608;2022-08-24T00:10:16;20.10;99.90
23991;DHT22;12205;50.600;4.608;2022-08-24T00:12:46;20.00;99.90
23991;DHT22;12205;50.600;4.608;2022-08-24T00:15:15;20.00;99.90
23991;DHT22;12205;50.600;4.608;2022-08-24T00:17:43;20.00;99.90
23991;DHT22;12205;50.600;4.608;2022-08-24T00:20:11;20.00;99.90
23991;DHT22;12205;50.600;4.608;2022-08-24T00:22:39;20.00;99.90
23991;DHT22;12205;50.600;4.608;2022-08-24T00:25:08;19.90;99.90
23991;DHT22;12205;50.600;4.608;2022-08-24T00:27:39;19.90;99.90
23991;DHT22;12205;50.600;4.608;2022-08-24T00:30:10;19.80;99.90
23991;DHT22;12205;50.600;4.608;2022-08-24T00:32:40;19.80;99.90
23991;DHT22;12205;50.600;4.608;2022-08-24T00:35:09;19.80;99.90
23991;DHT22;12205;50.600;4.608;2022-08-24T00:37:36;19.70;99.90
23991;DHT22;12205;50.600;4.608;2022-08-24T00:40:08;19.70;99.90
23991;DHT22;12205;50.600;4.608;2022-08-24T00:42:39;19.70;99.90
23991;DHT22;12205;50.600;4.608;2022-08-24T00:45:10;19.70;99.90
23991;DHT22;12205;50.600;4.608;2022-08-24T00:47:45;19.70;99.90
23991;DHT22;12205;50.600;4.608;2022-08-24T00:50:19;19.70;99.90
23991;DHT22;12205;50.600;4.608;2022-08-24T00:52:52;19.60;99.90
23991;DHT22;12205;50.600;4.608;2022-08-24T00:55:28;19.50;99.90
23991;DHT22;12205;50.600;4.608;2022-08-24T00:58:03;19.50;99.90
23991;DHT22;12205;50.600;4.608;2022-08-24T01:00:42;19.50;99.90
23991;DHT22;12205;50.600;4.608;2022-08-24T01:03:12;19.50;99.90
23991;DHT22;12205;50.600;4.608;2022-08-24T01:05:40;19.50;99.90
23991;DHT22;12205;50.600;4.608;2022-08-24T01:08:09;19.50;99.90
23991;DHT22;12205;50.600;4.608;2022-08-24T01:10:41;19.50;99.90
23991;DHT22;12205;50.600;4.608;2022-08-24T01:13:12;19.40;99.90
23991;DHT22;12205;50.600;4.608;2022-08-24T01:15:44;19.40;99.90
23991;DHT22;12205;50.600;4.608;2022-08-24T01:18:17;19.40;99.90
23991;DHT22;12205;50.600;4.608;2022-08-24T01:21:11;19.40;99.90
23991;DHT22;12205;50.600;4.608;2022-08-24T01:23:45;19.40;99.90
23991;DHT22;12205;50.600;4.608;2022-08-24T01:26:15;19.30;99.90
23991;DHT22;12205;50.600;4.608;2022-08-24T01:28:47;19.30;99.90
23991;DHT22;12205;50.600;4.608;2022-08-24T01:31:19;19.30;99.90
23991;DHT22;12205;50.600;4.608;2022-08-24T01:33:49;19.20;99.90
23991;DHT22;12205;50.600;4.608;2022-08-24T01:36:21;19.10;99.90
23991;DHT22;12205;50.600;4.608;2022-08-24T01:39:01;19.10;99.90
23991;DHT22;12205;50.600;4.608;2022-08-24T01:41:33;19.10;99.90
23991;DHT22;12205;50.600;4.608;2022-08-24T01:44:01;19.10;99.90
23991;DHT22;12205;50.600;4.608;2022-08-24T01:46:30;19.10;99.90
23991;DHT22;12205;50.600;4.608;2022-08-24T01:48:57;19.10;99.90
23991;DHT22;12205;50.600;4.608;2022-08-24T01:51:28;19.00;99.90
23991;DHT22;12205;50.600;4.608;2022-08-24T01:53:58;19.00;99.90
23991;DHT22;12205;50.600;4.608;2022-08-24T01:56:28;19.00;99.90
23991;DHT22;12205;50.600;4.608;2022-08-24T01:58:56;19.00;99.90
23991;DHT22;12205;50.600;4.608;2022-08-24T02:01:25;19.00;99.90
23991;DHT22;12205;50.600;4.608;2022-08-24T02:03:54;19.00;99.90
23991;DHT22;12205;50.600;4.608;2022-08-24T02:06:22;18.90;99.90
23991;DHT22;12205;50.600;4.608;2022-08-24T02:08:53;19.00;99.90
23991;DHT22;12205;50.600;4.608;2022-08-24T02:11:21;18.90;99.90
23991;DHT22;12205;50.600;4.608;2022-08-24T02:13:48;18.90;99.90
23991;DHT22;12205;50.600;4.608;2022-08-24T02:16:15;18.90;99.90
23991;DHT22;12205;50.600;4.608;2022-08-24T02:18:47;18.90;99.90
23991;DHT22;12205;50.600;4.608;2022-08-24T02:21:14;18.80;99.90
23991;DHT22;12205;50.600;4.608;2022-08-24T02:23:42;18.80;99.90
23991;DHT22;12205;50.600;4.608;2022-08-24T02:26:10;18.80;99.90
23991;DHT22;12205;50.600;4.608;2022-08-24T02:28:39;18.80;99.90
23991;DHT22;12205;50.600;4.608;2022-08-24T02:31:08;18.80;99.90
23991;DHT22;12205;50.600;4.608;2022-08-24T02:33:38;18.70;99.90
23991;DHT22;12205;50.600;4.608;2022-08-24T02:36:08;18.70;99.90
23991;DHT22;12205;50.600;4.608;2022-08-24T02:38:37;18.70;99.90
23991;DHT22;12205;50.600;4.608;2022-08-24T02:41:10;18.70;99.90
23991;DHT22;12205;50.600;4.608;2022-08-24T02:43:38;18.70;99.90
23991;DHT22;12205;50.600;4.608;2022-08-24T02:46:06;18.60;99.90
23991;DHT22;12205;50.600;4.608;2022-08-24T02:48:33;18.60;99.90
23991;DHT22;12205;50.600;4.608;2022-08-24T02:51:00;18.60;99.90
23991;DHT22;12205;50.600;4.608;2022-08-24T02:53:28;18.60;99.90
23991;DHT22;12205;50.600;4.608;2022-08-24T02:55:55;18.60;99.90
23991;DHT22;12205;50.600;4.608;2022-08-24T02:58:22;18.50;99.90
23991;DHT22;12205;50.600;4.608;2022-08-24T03:00:51;18.50;99.90
23991;DHT22;12205;50.600;4.608;2022-08-24T03:03:19;18.50;99.90
23991;DHT22;12205;50.600;4.608;2022-08-24T03:05:47;18.50;99.90
23991;DHT22;12205;50.600;4.608;2022-08-24T03:08:14;18.50;99.90
23991;DHT22;12205;50.600;4.608;2022-08-24T03:10:42;18.50;99.90
23991;DHT22;12205;50.600;4.608;2022-08-24T03:13:09;18.50;99.90
23991;DHT22;12205;50.600;4.608;2022-08-24T03:15:36;18.40;99.90
23991;DHT22;12205;50.600;4.608;2022-08-24T03:18:05;18.40;99.90
23991;DHT22;12205;50.600;4.608;2022-08-24T03:20:32;18.40;99.90
23991;DHT22;12205;50.600;4.608;2022-08-24T03:22:59;18.40;99.90
23991;DHT22;12205;50.600;4.608;2022-08-24T03:25:27;18.40;99.90
23991;DHT22;12205;50.600;4.608;2022-08-24T03:27:55;18.40;99.90
23991;DHT22;12205;50.600;4.608;2022-08-24T03:30:23;18.40;99.90
23991;DHT22;12205;50.600;4.608;2022-08-24T03:32:50;18.30;99.90
23991;DHT22;12205;50.600;4.608;2022-08-24T03:35:19;18.30;99.90
23991;DHT22;12205;50.600;4.608;2022-08-24T03:37:47;18.30;99.90
23991;DHT22;12205;50.600;4.608;2022-08-24T03:40:15;18.30;99.90
23991;DHT22;12205;50.600;4.608;2022-08-24T03:42:45;18.20;99.90
23991;DHT22;12205;50.600;4.608;2022-08-24T03:45:12;18.20;99.90
23991;DHT22;12205;50.600;4.608;2022-08-24T03:47:39;18.20;99.90
23991;DHT22;12205;50.600;4.608;2022-08-24T03:50:08;18.20;99.90
23991;DHT22;12205;50.600;4.608;2022-08-24T03:52:37;18.10;99.90
23991;DHT22;12205;50.600;4.608;2022-08-24T03:55:07;18.10;99.90
23991;DHT22;12205;50.600;4.608;2022-08-24T03:57:35;18.10;99.90
23991;DHT22;12205;50.600;4.608;2022-08-24T04:00:05;18.10;99.90
23991;DHT22;12205;50.600;4.608;2022-08-24T04:02:40;18.10;99.90
23991;DHT22;12205;50.600;4.608;2022-08-24T04:05:12;18.00;99.90
23991;DHT22;12205;50.600;4.608;2022-08-24T04:07:42;18.00;99.90
23991;DHT22;12205;50.600;4.608;2022-08-24T04:10:09;18.00;99.90
23991;DHT22;12205;50.600;4.608;2022-08-24T04:12:40;18.00;99.90
23991;DHT22;12205;50.600;4.608;2022-08-24T04:15:08;18.00;99.90
23991;DHT22;12205;50.600;4.608;2022-08-24T04:17:37;18.00;99.90
23991;DHT22;12205;50.600;4.608;2022-08-24T04:20:06;18.00;99.90
23991;DHT22;12205;50.600;4.608;2022-08-24T04:22:36;18.00;99.90
23991;DHT22;12205;50.600;4.608;2022-08-24T04:25:06;18.00;99.90
23991;DHT22;12205;50.600;4.608;2022-08-24T04:27:34;17.90;99.90
23991;DHT22;12205;50.600;4.608;2022-08-24T04:30:01;17.90;99.90
23991;DHT22;12205;50.600;4.608;2022-08-24T04:32:36;17.90;99.90
23991;DHT22;12205;50.600;4.608;2022-08-24T04:35:04;17.90;99.90
23991;DHT22;12205;50.600;4.608;2022-08-24T04:37:32;17.80;99.90
23991;DHT22;12205;50.600;4.608;2022-08-24T04:39:59;17.80;99.90
23991;DHT22;12205;50.600;4.608;2022-08-24T04:42:33;17.80;99.90
23991;DHT22;12205;50.600;4.608;2022-08-24T04:45:02;17.80;99.90
23991;DHT22;12205;50.600;4.608;2022-08-24T04:47:30;17.80;99.90
23991;DHT22;12205;50.600;4.608;2022-08-24T04:49:58;17.80;99.90
23991;DHT22;12205;50.600;4.608;2022-08-24T04:52:27;17.70;99.90
23991;DHT22;12205;50.600;4.608;2022-08-24T04:54:54;17.70;99.90
23991;DHT22;12205;50.600;4.608;2022-08-24T04:57:23;17.70;99.90
23991;DHT22;12205;50.600;4.608;2022-08-24T04:59:54;17.80;99.90
23991;DHT22;12205;50.600;4.608;2022-08-24T05:02:22;17.80;99.90
23991;DHT22;12205;50.600;4.608;2022-08-24T05:04:51;17.80;99.90
23991;DHT22;12205;50.600;4.608;2022-08-24T05:07:21;17.80;99.90
23991;DHT22;12205;50.600;4.608;2022-08-24T05:09:48;17.80;99.90
23991;DHT22;12205;50.600;4.608;2022-08-24T05:12:15;17.90;99.90
23991;DHT22;12205;50.600;4.608;2022-08-24T05:14:53;17.90;99.90
23991;DHT22;12205;50.600;4.608;2022-08-24T05:17:21;17.90;99.90
23991;DHT22;12205;50.600;4.608;2022-08-24T05:19:48;17.90;99.90
23991;DHT22;12205;50.600;4.608;2022-08-24T05:22:15;17.90;99.90
23991;DHT22;12205;50.600;4.608;2022-08-24T05:24:47;18.00;99.90
23991;DHT22;12205;50.600;4.608;2022-08-24T05:27:14;18.00;99.90
23991;DHT22;12205;50.600;4.608;2022-08-24T05:29:43;18.00;99.90
23991;DHT22;12205;50.600;4.608;2022-08-24T05:32:13;18.00;99.90
23991;DHT22;12205;50.600;4.608;2022-08-24T05:34:42;18.10;99.90
23991;DHT22;12205;50.600;4.608;2022-08-24T05:37:09;18.10;99.90
23991;DHT22;12205;50.600;4.608;2022-08-24T05:39:51;18.20;99.90
23991;DHT22;12205;50.600;4.608;2022-08-24T05:42:18;18.30;99.90
23991;DHT22;12205;50.600;4.608;2022-08-24T05:44:47;18.30;99.90
23991;DHT22;12205;50.600;4.608;2022-08-24T05:47:19;18.40;99.90
23991;DHT22;12205;50.600;4.608;2022-08-24T05:49:48;18.50;99.90
23991;DHT22;12205;50.600;4.608;2022-08-24T05:52:17;18.60;99.90
23991;DHT22;12205;50.600;4.608;2022-08-24T05:54:47;18.70;99.90
23991;DHT22;12205;50.600;4.608;2022-08-24T05:57:19;18.80;99.90
23991;DHT22;12205;50.600;4.608;2022-08-24T05:59:58;18.90;99.90
23991;DHT22;12205;50.600;4.608;2022-08-24T06:02:26;19.10;99.90
23991;DHT22;12205;50.600;4.608;2022-08-24T06:04:54;19.20;99.90
23991;DHT22;12205;50.600;4.608;2022-08-24T06:07:21;19.30;99.90
23991;DHT22;12205;50.600;4.608;2022-08-24T06:09:54;19.40;99.90
23991;DHT22;12205;50.600;4.608;2022-08-24T06:12:22;19.50;99.90
23991;DHT22;12205;50.600;4.608;2022-08-24T06:14:49;19.70;99.90
23991;DHT22;12205;50.600;4.608;2022-08-24T06:17:21;19.80;99.90
23991;DHT22;12205;50.600;4.608;2022-08-24T06:19:50;19.90;99.90
23991;DHT22;12205;50.600;4.608;2022-08-24T06:22:17;20.00;99.90
23991;DHT22;12205;50.600;4.608;2022-08-24T06:24:45;20.10;99.90
23991;DHT22;12205;50.600;4.608;2022-08-24T06:27:30;20.30;99.90
23991;DHT22;12205;50.600;4.608;2022-08-24T06:30:00;20.40;99.90
23991;DHT22;12205;50.600;4.608;2022-08-24T06:32:44;20.50;99.90
23991;DHT22;12205;50.600;4.608;2022-08-24T06:35:24;20.50;99.90
23991;DHT22;12205;50.600;4.608;2022-08-24T06:37:53;20.60;99.90
23991;DHT22;12205;50.600;4.608;2022-08-24T06:40:20;20.70;99.90
23991;DHT22;12205;50.600;4.608;2022-08-24T06:42:49;20.80;99.90
23991;DHT22;12205;50.600;4.608;2022-08-24T06:45:30;20.90;99.90
23991;DHT22;12205;50.600;4.608;2022-08-24T06:47:57;20.90;99.90
23991;DHT22;12205;50.600;4.608;2022-08-24T06:50:26;21.00;99.90
23991;DHT22;12205;50.600;4.608;2022-08-24T06:52:54;21.10;99.90
23991;DHT22;12205;50.600;4.608;2022-08-24T06:55:23;21.20;99.90
23991;DHT22;12205;50.600;4.608;2022-08-24T06:57:50;21.30;99.90
23991;DHT22;12205;50.600;4.608;2022-08-24T07:00:19;21.40;99.90
23991;DHT22;12205;50.600;4.608;2022-08-24T07:02:47;21.50;99.90
23991;DHT22;12205;50.600;4.608;2022-08-24T07:05:15;21.50;99.90
23991;DHT22;12205;50.600;4.608;2022-08-24T07:08:03;21.60;99.90
23991;DHT22;12205;50.600;4.608;2022-08-24T07:10:32;21.80;99.90
23991;DHT22;12205;50.600;4.608;2022-08-24T07:12:59;21.90;99.90
23991;DHT22;12205;50.600;4.608;2022-08-24T07:15:26;22.00;99.90
23991;DHT22;12205;50.600;4.608;2022-08-24T07:18:05;22.10;99.90
23991;DHT22;12205;50.600;4.608;2022-08-24T07:20:36;22.30;99.90
23991;DHT22;12205;50.600;4.608;2022-08-24T07:23:10;22.40;99.90
23991;DHT22;12205;50.600;4.608;2022-08-24T07:25:39;22.50;99.90
23991;DHT22;12205;50.600;4.608;2022-08-24T07:28:07;22.60;99.90
23991;DHT22;12205;50.600;4.608;2022-08-24T07:30:36;22.70;99.90
23991;DHT22;12205;50.600;4.608;2022-08-24T07:33:04;22.80;99.90
23991;DHT22;12205;50.600;4.608;2022-08-24T07:35:32;22.90;99.90
23991;DHT22;12205;50.600;4.608;2022-08-24T07:38:00;23.00;99.90
23991;DHT22;12205;50.600;4.608;2022-08-24T07:40:29;23.10;99.90
23991;DHT22;12205;50.600;4.608;2022-08-24T07:42:57;23.20;99.90
23991;DHT22;12205;50.600;4.608;2022-08-24T07:45:25;23.30;99.90
23991;DHT22;12205;50.600;4.608;2022-08-24T07:47:54;23.40;99.90
23991;DHT22;12205;50.600;4.608;2022-08-24T07:50:48;23.50;99.90
23991;DHT22;12205;50.600;4.608;2022-08-24T07:53:15;23.70;99.90
23991;DHT22;12205;50.600;4.608;2022-08-24T07:55:51;23.80;99.90
23991;DHT22;12205;50.600;4.608;2022-08-24T07:58:20;23.90;99.90
23991;DHT22;12205;50.600;4.608;2022-08-24T08:00:48;24.00;99.90
23991;DHT22;12205;50.600;4.608;2022-08-24T08:03:16;24.10;99.90
23991;DHT22;12205;50.600;4.608;2022-08-24T08:05:44;24.20;99.90
23991;DHT22;12205;50.600;4.608;2022-08-24T08:08:12;24.20;99.90
23991;DHT22;12205;50.600;4.608;2022-08-24T08:10:40;24.30;99.90
23991;DHT22;12205;50.600;4.608;2022-08-24T08:13:08;24.40;99.90
23991;DHT22;12205;50.600;4.608;2022-08-24T08:15:36;24.50;99.90
23991;DHT22;12205;50.600;4.608;2022-08-24T08:18:09;24.60;99.90
23991;DHT22;12205;50.600;4.608;2022-08-24T08:20:40;24.60;99.90
23991;DHT22;12205;50.600;4.608;2022-08-24T08:23:10;24.70;99.90
23991;DHT22;12205;50.600;4.608;2022-08-24T08:26:04;24.80;99.90
23991;DHT22;12205;50.600;4.608;2022-08-24T08:28:46;25.00;99.90
23991;DHT22;12205;50.600;4.608;2022-08-24T08:31:13;25.00;99.90
23991;DHT22;12205;50.600;4.608;2022-08-24T08:33:40;25.20;99.90
23991;DHT22;12205;50.600;4.608;2022-08-24T08:36:11;25.30;99.90
23991;DHT22;12205;50.600;4.608;2022-08-24T08:38:45;25.30;99.90
23991;DHT22;12205;50.600;4.608;2022-08-24T08:45:20;25.50;99.90
23991;DHT22;12205;50.600;4.608;2022-08-24T08:48:54;25.50;99.90
23991;DHT22;12205;50.600;4.608;2022-08-24T08:51:57;25.70;99.90
23991;DHT22;12205;50.600;4.608;2022-08-24T08:54:56;25.70;99.90
23991;DHT22;12205;50.600;4.608;2022-08-24T08:57:34;25.80;99.90
23991;DHT22;12205;50.600;4.608;2022-08-24T09:00:14;25.90;99.90
23991;DHT22;12205;50.600;4.608;2022-08-24T09:03:14;26.00;99.90
23991;DHT22;12205;50.600;4.608;2022-08-24T09:06:52;26.10;99.90
23991;DHT22;12205;50.600;4.608;2022-08-24T09:09:44;26.20;99.90
23991;DHT22;12205;50.600;4.608;2022-08-24T09:12:35;26.20;99.90
23991;DHT22;12205;50.600;4.608;2022-08-24T09:15:44;26.30;99.90
23991;DHT22;12205;50.600;4.608;2022-08-24T09:18:36;26.30;99.90
23991;DHT22;12205;50.600;4.608;2022-08-24T09:21:27;26.40;99.90
23991;DHT22;12205;50.600;4.608;2022-08-24T09:24:20;26.50;99.90
23991;DHT22;12205;50.600;4.608;2022-08-24T09:27:12;26.50;99.90
23991;DHT22;12205;50.600;4.608;2022-08-24T09:30:03;26.50;99.90
23991;DHT22;12205;50.600;4.608;2022-08-24T09:33:00;26.60;99.90
23991;DHT22;12205;50.600;4.608;2022-08-24T09:35:59;26.60;99.90
23991;DHT22;12205;50.600;4.608;2022-08-24T09:38:47;26.70;99.90
23991;DHT22;12205;50.600;4.608;2022-08-24T09:41:33;26.80;99.90
23991;DHT22;12205;50.600;4.608;2022-08-24T09:44:30;26.80;99.90
23991;DHT22;12205;50.600;4.608;2022-08-24T09:47:34;26.80;99.90
23991;DHT22;12205;50.600;4.608;2022-08-24T09:53:46;27.00;99.90
23991;DHT22;12205;50.600;4.608;2022-08-24T09:56:50;27.10;99.90
23991;DHT22;12205;50.600;4.608;2022-08-24T09:59:56;27.10;99.90
23991;DHT22;12205;50.600;4.608;2022-08-24T10:03:02;27.10;99.90
23991;DHT22;12205;50.600;4.608;2022-08-24T10:06:06;27.20;99.90
23991;DHT22;12205;50.600;4.608;2022-08-24T10:08:52;27.30;99.90
23991;DHT22;12205;50.600;4.608;2022-08-24T10:11:36;27.40;99.90
23991;DHT22;12205;50.600;4.608;2022-08-24T10:14:18;27.50;99.90
23991;DHT22;12205;50.600;4.608;2022-08-24T10:17:04;27.60;99.90
23991;DHT22;12205;50.600;4.608;2022-08-24T10:19:50;27.60;99.90
23991;DHT22;12205;50.600;4.608;2022-08-24T10:22:40;27.70;99.90
23991;DHT22;12205;50.600;4.608;2022-08-24T10:25:32;27.80;99.90
23991;DHT22;12205;50.600;4.608;2022-08-24T10:28:38;27.90;99.90
23991;DHT22;12205;50.600;4.608;2022-08-24T10:31:19;27.90;99.90
23991;DHT22;12205;50.600;4.608;2022-08-24T10:34:10;28.00;99.90
23991;DHT22;12205;50.600;4.608;2022-08-24T10:37:12;28.10;99.90
23991;DHT22;12205;50.600;4.608;2022-08-24T10:43:40;28.30;99.90
23991;DHT22;12205;50.600;4.608;2022-08-24T10:46:43;28.30;99.90
23991;DHT22;12205;50.600;4.608;2022-08-24T10:53:09;28.40;99.90
23991;DHT22;12205;50.600;4.608;2022-08-24T10:55:44;28.50;99.90
23991;DHT22;12205;50.600;4.608;2022-08-24T10:58:37;28.50;99.90
23991;DHT22;12205;50.600;4.608;2022-08-24T11:01:16;28.70;99.90
23991;DHT22;12205;50.600;4.608;2022-08-24T11:03:50;28.70;99.90
23991;DHT22;12205;50.600;4.608;2022-08-24T11:06:21;28.80;99.90
23991;DHT22;12205;50.600;4.608;2022-08-24T11:08:54;28.90;99.90
23991;DHT22;12205;50.600;4.608;2022-08-24T11:11:29;29.00;99.90
23991;DHT22;12205;50.600;4.608;2022-08-24T11:14:02;29.10;99.90
23991;DHT22;12205;50.600;4.608;2022-08-24T11:16:34;29.20;99.90
23991;DHT22;12205;50.600;4.608;2022-08-24T11:19:08;29.30;99.90
23991;DHT22;12205;50.600;4.608;2022-08-24T11:21:48;29.40;99.90
23991;DHT22;12205;50.600;4.608;2022-08-24T11:24:38;29.40;99.90
23991;DHT22;12205;50.600;4.608;2022-08-24T11:27:21;29.50;99.90
23991;DHT22;12205;50.600;4.608;2022-08-24T11:30:10;29.70;99.90
23991;DHT22;12205;50.600;4.608;2022-08-24T11:32:44;29.80;99.90
23991;DHT22;12205;50.600;4.608;2022-08-24T11:35:22;30.00;99.90
23991;DHT22;12205;50.600;4.608;2022-08-24T11:37:52;30.10;99.90
23991;DHT22;12205;50.600;4.608;2022-08-24T11:40:24;30.30;99.90
23991;DHT22;12205;50.600;4.608;2022-08-24T11:43:05;30.50;99.90
23991;DHT22;12205;50.600;4.608;2022-08-24T11:45:44;30.70;99.90
23991;DHT22;12205;50.600;4.608;2022-08-24T11:48:33;30.90;99.90
23991;DHT22;12205;50.600;4.608;2022-08-24T11:51:14;31.10;99.90
23991;DHT22;12205;50.600;4.608;2022-08-24T11:53:59;31.30;99.90
23991;DHT22;12205;50.600;4.608;2022-08-24T11:56:37;31.50;99.90
23991;DHT22;12205;50.600;4.608;2022-08-24T11:59:19;31.70;99.90
23991;DHT22;12205;50.600;4.608;2022-08-24T12:02:00;32.10;99.90
23991;DHT22;12205;50.600;4.608;2022-08-24T12:04:43;32.40;99.90
23991;DHT22;12205;50.600;4.608;2022-08-24T12:07:24;32.60;99.90
23991;DHT22;12205;50.600;4.608;2022-08-24T12:10:10;32.80;99.90
23991;DHT22;12205;50.600;4.608;2022-08-24T12:12:50;33.30;99.90
23991;DHT22;12205;50.600;4.608;2022-08-24T12:15:36;33.50;99.90
23991;DHT22;12205;50.600;4.608;2022-08-24T12:18:17;33.50;99.50
23991;DHT22;12205;50.600;4.608;2022-08-24T12:20:53;34.10;99.50
23991;DHT22;12205;50.600;4.608;2022-08-24T12:23:26;34.90;98.10
23991;DHT22;12205;50.600;4.608;2022-08-24T12:26:05;35.90;96.90
23991;DHT22;12205;50.600;4.608;2022-08-24T12:28:39;36.60;92.70
23991;DHT22;12205;50.600;4.608;2022-08-24T12:31:16;37.10;91.00
23991;DHT22;12205;50.600;4.608;2022-08-24T12:33:48;37.70;90.00
23991;DHT22;12205;50.600;4.608;2022-08-24T12:36:27;38.50;83.60
23991;DHT22;12205;50.600;4.608;2022-08-24T12:39:08;39.00;79.50
23991;DHT22;12205;50.600;4.608;2022-08-24T12:41:47;39.80;74.70
23991;DHT22;12205;50.600;4.608;2022-08-24T12:44:24;39.80;70.20
23991;DHT22;12205;50.600;4.608;2022-08-24T12:46:57;39.10;69.70
23991;DHT22;12205;50.600;4.608;2022-08-24T12:49:29;39.80;69.10
23991;DHT22;12205;50.600;4.608;2022-08-24T12:52:23;39.90;64.50
23991;DHT22;12205;50.600;4.608;2022-08-24T12:55:25;39.80;64.70
23991;DHT22;12205;50.600;4.608;2022-08-24T12:58:30;40.50;62.80
23991;DHT22;12205;50.600;4.608;2022-08-24T13:01:13;41.30;59.40
23991;DHT22;12205;50.600;4.608;2022-08-24T13:03:46;41.60;57.20
23991;DHT22;12205;50.600;4.608;2022-08-24T13:06:17;42.10;55.40
23991;DHT22;12205;50.600;4.608;2022-08-24T13:08:51;41.90;54.60
23991;DHT22;12205;50.600;4.608;2022-08-24T13:11:32;42.40;53.90
23991;DHT22;12205;50.600;4.608;2022-08-24T13:14:14;43.10;52.80
23991;DHT22;12205;50.600;4.608;2022-08-24T13:16:47;43.70;50.10
23991;DHT22;12205;50.600;4.608;2022-08-24T13:19:32;43.50;47.50
23991;DHT22;12205;50.600;4.608;2022-08-24T13:25:23;43.50;47.00
23991;DHT22;12205;50.600;4.608;2022-08-24T13:31:04;45.00;45.30
23991;DHT22;12205;50.600;4.608;2022-08-24T13:33:42;44.70;43.50
23991;DHT22;12205;50.600;4.608;2022-08-24T13:37:00;45.00;44.30
23991;DHT22;12205;50.600;4.608;2022-08-24T13:40:02;45.20;42.30
23991;DHT22;12205;50.600;4.608;2022-08-24T13:43:00;45.30;40.80
23991;DHT22;12205;50.600;4.608;2022-08-24T13:45:40;45.90;41.50
23991;DHT22;12205;50.600;4.608;2022-08-24T13:48:39;46.30;40.60
23991;DHT22;12205;50.600;4.608;2022-08-24T13:51:33;46.10;39.40
23991;DHT22;12205;50.600;4.608;2022-08-24T13:54:20;46.10;39.20
23991;DHT22;12205;50.600;4.608;2022-08-24T13:57:02;46.10;39.30
23991;DHT22;12205;50.600;4.608;2022-08-24T14:02:55;46.70;38.20
23991;DHT22;12205;50.600;4.608;2022-08-24T14:05:36;47.40;37.50
23991;DHT22;12205;50.600;4.608;2022-08-24T14:08:34;48.00;37.30
23991;DHT22;12205;50.600;4.608;2022-08-24T14:11:16;48.00;35.90
23991;DHT22;12205;50.600;4.608;2022-08-24T14:14:05;47.40;36.10
23991;DHT22;12205;50.600;4.608;2022-08-24T14:16:42;47.00;36.80
23991;DHT22;12205;50.600;4.608;2022-08-24T14:19:44;45.90;37.80
23991;DHT22;12205;50.600;4.608;2022-08-24T14:22:29;46.20;37.30
23991;DHT22;12205;50.600;4.608;2022-08-24T14:25:20;45.00;36.90
23991;DHT22;12205;50.600;4.608;2022-08-24T14:28:19;45.10;37.60
23991;DHT22;12205;50.600;4.608;2022-08-24T14:31:18;45.20;37.60
23991;DHT22;12205;50.600;4.608;2022-08-24T14:34:05;44.40;38.20
23991;DHT22;12205;50.600;4.608;2022-08-24T14:36:45;43.90;38.20
23991;DHT22;12205;50.600;4.608;2022-08-24T14:39:25;43.90;38.70
23991;DHT22;12205;50.600;4.608;2022-08-24T14:42:11;44.00;39.30
23991;DHT22;12205;50.600;4.608;2022-08-24T14:44:57;43.60;39.10
23991;DHT22;12205;50.600;4.608;2022-08-24T14:47:41;43.30;38.80
23991;DHT22;12205;50.600;4.608;2022-08-24T14:50:24;43.00;39.70
23991;DHT22;12205;50.600;4.608;2022-08-24T14:53:06;43.10;39.40
23991;DHT22;12205;50.600;4.608;2022-08-24T14:55:55;42.60;39.80
23991;DHT22;12205;50.600;4.608;2022-08-24T14:58:41;41.80;40.50
23991;DHT22;12205;50.600;4.608;2022-08-24T15:01:37;41.40;41.60
23991;DHT22;12205;50.600;4.608;2022-08-24T15:04:35;40.80;41.70
23991;DHT22;12205;50.600;4.608;2022-08-24T15:07:25;40.10;42.20
23991;DHT22;12205;50.600;4.608;2022-08-24T15:09:56;39.80;43.00
23991;DHT22;12205;50.600;4.608;2022-08-24T15:12:37;39.40;43.00
23991;DHT22;12205;50.600;4.608;2022-08-24T15:15:11;39.00;44.20
23991;DHT22;12205;50.600;4.608;2022-08-24T15:17:54;38.60;44.10
23991;DHT22;12205;50.600;4.608;2022-08-24T15:20:52;38.30;44.80
23991;DHT22;12205;50.600;4.608;2022-08-24T15:26:41;37.80;47.10
23991;DHT22;12205;50.600;4.608;2022-08-24T15:29:20;37.50;48.00
23991;DHT22;12205;50.600;4.608;2022-08-24T15:31:59;37.30;49.00
23991;DHT22;12205;50.600;4.608;2022-08-24T15:34:40;37.30;49.50
23991;DHT22;12205;50.600;4.608;2022-08-24T15:37:11;37.70;48.90
23991;DHT22;12205;50.600;4.608;2022-08-24T15:39:41;38.10;47.90
23991;DHT22;12205;50.600;4.608;2022-08-24T15:42:11;38.50;47.70
23991;DHT22;12205;50.600;4.608;2022-08-24T15:44:41;38.70;46.50
23991;DHT22;12205;50.600;4.608;2022-08-24T15:47:20;39.10;46.00
23991;DHT22;12205;50.600;4.608;2022-08-24T15:49:55;39.70;45.00
23991;DHT22;12205;50.600;4.608;2022-08-24T15:52:41;40.40;44.00
23991;DHT22;12205;50.600;4.608;2022-08-24T15:55:39;41.20;42.20
23991;DHT22;12205;50.600;4.608;2022-08-24T15:58:19;41.70;41.10
23991;DHT22;12205;50.600;4.608;2022-08-24T16:00:51;42.00;40.90
23991;DHT22;12205;50.600;4.608;2022-08-24T16:03:48;42.20;40.40
23991;DHT22;12205;50.600;4.608;2022-08-24T16:06:23;42.00;41.40
23991;DHT22;12205;50.600;4.608;2022-08-24T16:08:56;41.50;41.70
23991;DHT22;12205;50.600;4.608;2022-08-24T16:11:30;41.30;41.50
23991;DHT22;12205;50.600;4.608;2022-08-24T16:14:03;41.80;41.40
23991;DHT22;12205;50.600;4.608;2022-08-24T16:16:36;42.20;39.70
23991;DHT22;12205;50.600;4.608;2022-08-24T16:19:06;42.80;39.30
23991;DHT22;12205;50.600;4.608;2022-08-24T16:21:53;43.00;41.00
23991;DHT22;12205;50.600;4.608;2022-08-24T16:24:28;41.80;42.00
23991;DHT22;12205;50.600;4.608;2022-08-24T16:27:01;40.70;44.10
23991;DHT22;12205;50.600;4.608;2022-08-24T16:29:49;40.10;45.00
23991;DHT22;12205;50.600;4.608;2022-08-24T16:32:23;39.80;45.40
23991;DHT22;12205;50.600;4.608;2022-08-24T16:34:53;39.50;46.30
23991;DHT22;12205;50.600;4.608;2022-08-24T16:37:32;39.50;46.60
23991;DHT22;12205;50.600;4.608;2022-08-24T16:40:00;39.40;46.70
23991;DHT22;12205;50.600;4.608;2022-08-24T16:42:28;39.40;46.60
23991;DHT22;12205;50.600;4.608;2022-08-24T16:44:57;39.90;45.90
23991;DHT22;12205;50.600;4.608;2022-08-24T16:47:26;40.00;45.60
23991;DHT22;12205;50.600;4.608;2022-08-24T16:49:54;39.40;46.40
23991;DHT22;12205;50.600;4.608;2022-08-24T16:52:21;39.00;47.10
23991;DHT22;12205;50.600;4.608;2022-08-24T16:54:50;38.80;47.30